THY7AB LROP-LROP
Flight info
| Callsign | THY7AB |
|---|---|
| Flight time | 0h 29m |
| Altitude | 37000 |
| Route | IDARU1K/08R IDARU |
| Aircraft | A20N/M-SDE2E3FGHIRWXY/LB1 |
Departure
| Time | 2026-05-07 18:43 |
|---|---|
| Airport | Bucharest Henri Coandă International Airport (LROP) |
Arrival
| Time | 2026-05-07 19:13 |
|---|---|
| Airport | Bucharest Henri Coandă International Airport (LROP) |
| Time | Latitude | Longitude | Altitude | Speed | Heading |
|---|---|---|---|---|---|
| 2026-05-07 18:43 | 44.57521 | 26.40097 | 4691 ft | 304 kts | 122° |
| 2026-05-07 18:43 | 44.56644 | 26.42740 | 4737 ft | 304 kts | 112° |
| 2026-05-07 18:44 | 44.56007 | 26.45581 | 4771 ft | 302 kts | 106° |
| 2026-05-07 18:44 | 44.55601 | 26.48490 | 4614 ft | 308 kts | 98° |
| 2026-05-07 18:44 | 44.55554 | 26.51474 | 4372 ft | 309 kts | 86° |
| 2026-05-07 18:44 | 44.55938 | 26.54447 | 4151 ft | 310 kts | 75° |
| 2026-05-07 18:45 | 44.56681 | 26.57230 | 4162 ft | 302 kts | 65° |
| 2026-05-07 18:45 | 44.57727 | 26.59681 | 4384 ft | 286 kts | 54° |
| 2026-05-07 18:45 | 44.58955 | 26.61813 | 4515 ft | 273 kts | 51° |
| 2026-05-07 18:45 | 44.60157 | 26.63763 | 4598 ft | 262 kts | 49° |
| 2026-05-07 18:46 | 44.61244 | 26.65772 | 4586 ft | 253 kts | 69° |
| 2026-05-07 18:46 | 44.61433 | 26.68111 | 4566 ft | 238 kts | 108° |
| 2026-05-07 18:46 | 44.60583 | 26.69964 | 4560 ft | 223 kts | 149° |
| 2026-05-07 18:46 | 44.59170 | 26.70567 | 4568 ft | 210 kts | 180° |
| 2026-05-07 18:47 | 44.57746 | 26.70337 | 4569 ft | 202 kts | 193° |
| 2026-05-07 18:47 | 44.56412 | 26.69908 | 4563 ft | 194 kts | 195° |
| 2026-05-07 18:47 | 44.55089 | 26.69404 | 4572 ft | 204 kts | 196° |
| 2026-05-07 18:47 | 44.53703 | 26.68861 | 4576 ft | 208 kts | 197° |
| 2026-05-07 18:48 | 44.52305 | 26.68313 | 4575 ft | 208 kts | 196° |
| 2026-05-07 18:48 | 44.50903 | 26.67762 | 4542 ft | 208 kts | 197° |
| 2026-05-07 18:48 | 44.49525 | 26.67219 | 4453 ft | 207 kts | 196° |
| 2026-05-07 18:48 | 44.48135 | 26.66669 | 4355 ft | 206 kts | 197° |
| 2026-05-07 18:49 | 44.46756 | 26.66120 | 4253 ft | 206 kts | 196° |
| 2026-05-07 18:49 | 44.45364 | 26.65560 | 4152 ft | 206 kts | 199° |
| 2026-05-07 18:49 | 44.44152 | 26.64564 | 4036 ft | 205 kts | 229° |
| 2026-05-07 18:49 | 44.43517 | 26.62804 | 3949 ft | 208 kts | 251° |
| 2026-05-07 18:50 | 44.43161 | 26.60815 | 3848 ft | 209 kts | 256° |
| 2026-05-07 18:50 | 44.42866 | 26.58817 | 3746 ft | 210 kts | 256° |
| 2026-05-07 18:50 | 44.42587 | 26.56830 | 3646 ft | 209 kts | 257° |
| 2026-05-07 18:50 | 44.42313 | 26.54847 | 3544 ft | 210 kts | 257° |
| 2026-05-07 18:51 | 44.42035 | 26.52836 | 3447 ft | 209 kts | 257° |
| 2026-05-07 18:51 | 44.41762 | 26.50853 | 3355 ft | 208 kts | 257° |
| 2026-05-07 18:51 | 44.41492 | 26.48867 | 3530 ft | 209 kts | 257° |
| 2026-05-07 18:51 | 44.41221 | 26.46864 | 3715 ft | 209 kts | 257° |
| 2026-05-07 18:52 | 44.40947 | 26.44865 | 3915 ft | 210 kts | 257° |
| 2026-05-07 18:52 | 44.40665 | 26.42839 | 3952 ft | 211 kts | 257° |
| 2026-05-07 18:52 | 44.40390 | 26.40845 | 3949 ft | 210 kts | 257° |
| 2026-05-07 18:52 | 44.40117 | 26.38840 | 3971 ft | 210 kts | 257° |
| 2026-05-07 18:53 | 44.39842 | 26.36817 | 3947 ft | 211 kts | 257° |
| 2026-05-07 18:53 | 44.39565 | 26.34792 | 3963 ft | 211 kts | 256° |
| 2026-05-07 18:53 | 44.39290 | 26.32791 | 3968 ft | 211 kts | 256° |
| 2026-05-07 18:53 | 44.39014 | 26.30776 | 3971 ft | 211 kts | 256° |
| 2026-05-07 18:54 | 44.38740 | 26.28760 | 3974 ft | 211 kts | 256° |
| 2026-05-07 18:54 | 44.38466 | 26.26736 | 3973 ft | 212 kts | 256° |
| 2026-05-07 18:54 | 44.38195 | 26.24715 | 3973 ft | 212 kts | 256° |
| 2026-05-07 18:54 | 44.37925 | 26.22694 | 3975 ft | 212 kts | 256° |
| 2026-05-07 18:55 | 44.37659 | 26.20661 | 3974 ft | 212 kts | 256° |
| 2026-05-07 18:55 | 44.37395 | 26.18651 | 3974 ft | 212 kts | 256° |
| 2026-05-07 18:55 | 44.37127 | 26.16628 | 3974 ft | 212 kts | 256° |
| 2026-05-07 18:55 | 44.36860 | 26.14623 | 3973 ft | 212 kts | 256° |
| 2026-05-07 18:56 | 44.36586 | 26.12577 | 3975 ft | 212 kts | 256° |
| 2026-05-07 18:56 | 44.36315 | 26.10546 | 3975 ft | 212 kts | 256° |
| 2026-05-07 18:56 | 44.36044 | 26.08518 | 3974 ft | 212 kts | 256° |
| 2026-05-07 18:56 | 44.35774 | 26.06484 | 3975 ft | 213 kts | 256° |
| 2026-05-07 18:57 | 44.35502 | 26.04454 | 3973 ft | 213 kts | 256° |
| 2026-05-07 18:57 | 44.35229 | 26.02426 | 3973 ft | 213 kts | 256° |
| 2026-05-07 18:57 | 44.34956 | 26.00392 | 3973 ft | 213 kts | 256° |
| 2026-05-07 18:57 | 44.34834 | 25.98333 | 3959 ft | 216 kts | 278° |
| 2026-05-07 18:58 | 44.35483 | 25.96452 | 3982 ft | 220 kts | 308° |
| 2026-05-07 18:58 | 44.36555 | 25.94924 | 3972 ft | 223 kts | 315° |
| 2026-05-07 18:58 | 44.37716 | 25.93466 | 3972 ft | 223 kts | 316° |
| 2026-05-07 18:58 | 44.38890 | 25.92030 | 3974 ft | 224 kts | 316° |
| 2026-05-07 18:59 | 44.40058 | 25.90613 | 3975 ft | 223 kts | 316° |
| 2026-05-07 18:59 | 44.41130 | 25.89309 | 3974 ft | 224 kts | 316° |
| 2026-05-07 18:59 | 44.41657 | 25.88669 | 3975 ft | 224 kts | 316° |
| 2026-05-07 18:59 | 44.42849 | 25.87219 | 3987 ft | 236 kts | 316° |
| 2026-05-07 19:00 | 44.44102 | 25.85684 | 3971 ft | 233 kts | 316° |
| 2026-05-07 19:00 | 44.45378 | 25.84400 | 3956 ft | 224 kts | 338° |
| 2026-05-07 19:00 | 44.46890 | 25.83956 | 3973 ft | 226 kts | 353° |
| 2026-05-07 19:00 | 44.48466 | 25.83790 | 3976 ft | 227 kts | 356° |
| 2026-05-07 19:01 | 44.50042 | 25.83669 | 3976 ft | 227 kts | 356° |
| 2026-05-07 19:01 | 44.51642 | 25.83558 | 3977 ft | 228 kts | 356° |
| 2026-05-07 19:01 | 44.53210 | 25.83446 | 3978 ft | 227 kts | 356° |
| 2026-05-07 19:01 | 44.54784 | 25.83342 | 3971 ft | 221 kts | 356° |
| 2026-05-07 19:02 | 44.56287 | 25.83249 | 3964 ft | 212 kts | 356° |
| 2026-05-07 19:02 | 44.57765 | 25.83155 | 3965 ft | 211 kts | 356° |
| 2026-05-07 19:02 | 44.59221 | 25.83059 | 3963 ft | 211 kts | 356° |
| 2026-05-07 19:02 | 44.60688 | 25.82889 | 3948 ft | 212 kts | 344° |
| 2026-05-07 19:03 | 44.61926 | 25.81902 | 3808 ft | 203 kts | 307° |
| 2026-05-07 19:03 | 44.62531 | 25.80172 | 3695 ft | 198 kts | 282° |
| 2026-05-07 19:03 | 44.62828 | 25.78263 | 3573 ft | 199 kts | 278° |
| 2026-05-07 19:03 | 44.63058 | 25.76358 | 3457 ft | 199 kts | 276° |
| 2026-05-07 19:04 | 44.63280 | 25.74430 | 3230 ft | 199 kts | 276° |
| 2026-05-07 19:04 | 44.63283 | 25.72535 | 2981 ft | 193 kts | 248° |
| 2026-05-07 19:04 | 44.62538 | 25.71087 | 2761 ft | 184 kts | 209° |
| 2026-05-07 19:04 | 44.61377 | 25.70716 | 2664 ft | 167 kts | 172° |
| 2026-05-07 19:05 | 44.60362 | 25.71361 | 2495 ft | 152 kts | 149° |
| 2026-05-07 19:05 | 44.59508 | 25.72192 | 2482 ft | 147 kts | 147° |
| 2026-05-07 19:05 | 44.58692 | 25.73026 | 2475 ft | 147 kts | 147° |
| 2026-05-07 19:05 | 44.57865 | 25.73880 | 2478 ft | 147 kts | 146° |
| 2026-05-07 19:06 | 44.57040 | 25.74731 | 2470 ft | 147 kts | 146° |
| 2026-05-07 19:06 | 44.55791 | 25.76946 | 2400 ft | 152 kts | 101° |
| 2026-05-07 19:06 | 44.55692 | 25.78370 | 2234 ft | 144 kts | 101° |
| 2026-05-07 19:07 | 44.55545 | 25.79735 | 2134 ft | 141 kts | 104° |
| 2026-05-07 19:07 | 44.55408 | 25.81103 | 2074 ft | 141 kts | 101° |
| 2026-05-07 19:07 | 44.55276 | 25.82476 | 2021 ft | 141 kts | 100° |
| 2026-05-07 19:07 | 44.55218 | 25.83848 | 1975 ft | 142 kts | 96° |
| 2026-05-07 19:08 | 44.55184 | 25.85242 | 1931 ft | 143 kts | 96° |
| 2026-05-07 19:08 | 44.55181 | 25.86626 | 1854 ft | 143 kts | 93° |
| 2026-05-07 19:08 | 44.55226 | 25.88024 | 1776 ft | 142 kts | 90° |
| 2026-05-07 19:08 | 44.55336 | 25.89388 | 1774 ft | 142 kts | 89° |
| 2026-05-07 19:09 | 44.55401 | 25.90767 | 1891 ft | 141 kts | 92° |
| 2026-05-07 19:09 | 44.55454 | 25.92138 | 2012 ft | 143 kts | 89° |
| 2026-05-07 19:09 | 44.55542 | 25.93546 | 2138 ft | 143 kts | 90° |
| 2026-05-07 19:09 | 44.55616 | 25.94942 | 1998 ft | 144 kts | 90° |
| 2026-05-07 19:10 | 44.55698 | 25.96334 | 1632 ft | 143 kts | 89° |
| 2026-05-07 19:10 | 44.55793 | 25.97690 | 1295 ft | 140 kts | 88° |
| 2026-05-07 19:10 | 44.55882 | 25.99036 | 988 ft | 137 kts | 88° |
| 2026-05-07 19:10 | 44.55962 | 26.00383 | 860 ft | 138 kts | 86° |
| 2026-05-07 19:11 | 44.56044 | 26.01721 | 795 ft | 138 kts | 87° |
| 2026-05-07 19:11 | 44.56133 | 26.03061 | 700 ft | 138 kts | 84° |
| 2026-05-07 19:11 | 44.56229 | 26.04386 | 607 ft | 136 kts | 84° |
| 2026-05-07 19:11 | 44.56327 | 26.05711 | 586 ft | 137 kts | 85° |
| 2026-05-07 19:12 | 44.56419 | 26.07032 | 447 ft | 136 kts | 83° |
| 2026-05-07 19:12 | 44.56522 | 26.08347 | 311 ft | 132 kts | 83° |
| 2026-05-07 19:12 | 44.56612 | 26.09502 | 307 ft | 109 kts | 84° |
| 2026-05-07 19:12 | 44.56679 | 26.10475 | 304 ft | 79 kts | 84° |
| 2026-05-07 19:13 | 44.56718 | 26.11005 | 303 ft | 29 kts | 85° |
| 2026-05-07 19:13 | 44.56729 | 26.11224 | 303 ft | 21 kts | 85° |
| 2026-05-07 19:13 | 44.56745 | 26.11430 | 302 ft | 21 kts | 83° |
| 2026-05-07 19:13 | 44.56763 | 26.11631 | 301 ft | 21 kts | 83° |
| 2026-05-07 19:14 | 44.56778 | 26.11843 | 300 ft | 21 kts | 86° |
| 2026-05-07 19:14 | 44.56810 | 26.11971 | 300 ft | 9 kts | 334° |
| 2026-05-07 19:14 | 44.56794 | 26.11904 | 300 ft | 11 kts | 238° |
| 2026-05-07 19:14 | 44.56768 | 26.11754 | 300 ft | 17 kts | 267° |
| 2026-05-07 19:15 | 44.56760 | 26.11584 | 302 ft | 16 kts | 264° |
| 2026-05-07 19:15 | 44.56749 | 26.11423 | 302 ft | 17 kts | 264° |
| 2026-05-07 19:15 | 44.56738 | 26.11263 | 303 ft | 16 kts | 264° |
| 2026-05-07 19:15 | 44.56726 | 26.11102 | 303 ft | 16 kts | 264° |
| 2026-05-07 19:16 | 44.56713 | 26.10932 | 303 ft | 20 kts | 263° |
| 2026-05-07 19:16 | 44.56754 | 26.10771 | 303 ft | 19 kts | 342° |
| 2026-05-07 19:16 | 44.56865 | 26.10747 | 304 ft | 14 kts | 354° |
| 2026-05-07 19:16 | 44.56966 | 26.10728 | 306 ft | 14 kts | 340° |
| 2026-05-07 19:17 | 44.57038 | 26.10638 | 307 ft | 14 kts | 301° |
| 2026-05-07 19:17 | 44.57071 | 26.10508 | 307 ft | 14 kts | 276° |
| 2026-05-07 19:17 | 44.57017 | 26.10463 | 307 ft | 13 kts | 151° |
| 2026-05-07 19:17 | 44.56995 | 26.10470 | 307 ft | 0 kts | 172° |